Time;durP1;ratioP1;P1;durP2;ratioP2;P2;SDS_P1;SDS_P2;PMS_P1;PMS_P2;Temp;Humidity;BMP_temperature;BMP_pressure;BME280_temperature;BME280_humidity;BME280_pressure;Samples;Min_cycle;Max_cycle;Signal;HPM_P1;HPM_P2
2022/01/15 00:01:39;;;;;;;0.10;0.10;;;;;;;;;;4809713;29;20041;-86
2022/01/15 00:04:05;;;;;;;0.10;0.10;;;;;;;;;;4824820;29;20042;-87
2022/01/15 00:06:31;;;;;;;0.10;0.10;;;;;;;;;;4809898;29;20046;-86
2022/01/15 00:08:57;;;;;;;0.10;0.10;;;;;;;;;;4809882;29;20045;-86
2022/01/15 00:11:23;;;;;;;0.10;0.10;;;;;;;;;;4808876;29;20114;-86
2022/01/15 00:14:08;;;;;;;0.10;0.10;;;;;;;;;;4824996;29;20062;-86
2022/01/15 00:16:45;;;;;;;0.10;0.10;;;;;;;;;;4824938;29;20058;-85
2022/01/15 00:19:13;;;;;;;0.10;0.10;;;;;;;;;;4824684;29;20050;-86
2022/01/15 00:21:39;;;;;;;0.10;0.10;;;;;;;;;;4824664;29;20494;-86
2022/01/15 00:24:06;;;;;;;0.10;0.10;;;;;;;;;;4809338;29;20046;-86
2022/01/15 00:26:32;;;;;;;0.10;0.10;;;;;;;;;;4809534;29;20133;-85
2022/01/15 00:28:58;;;;;;;0.10;0.10;;;;;;;;;;4824977;29;20057;-86
2022/01/15 00:31:24;;;;;;;0.10;0.10;;;;;;;;;;4809558;29;20042;-85
2022/01/15 00:33:50;;;;;;;0.10;0.10;;;;;;;;;;4809594;29;20113;-85
2022/01/15 00:36:16;;;;;;;0.10;0.10;;;;;;;;;;4824596;29;20132;-86
2022/01/15 00:38:42;;;;;;;0.10;0.10;;;;;;;;;;4809491;29;20079;-86
2022/01/15 00:41:08;;;;;;;0.10;0.10;;;;;;;;;;4824367;29;20061;-85
2022/01/15 00:43:34;;;;;;;0.10;0.10;;;;;;;;;;4794274;29;20054;-85
2022/01/15 00:46:00;;;;;;;0.10;0.10;;;;;;;;;;4809433;29;20194;-85
2022/01/15 00:48:26;;;;;;;0.10;0.10;;;;;;;;;;4809517;29;20562;-85
2022/01/15 00:50:52;;;;;;;0.10;0.10;;;;;;;;;;4809255;29;20042;-85
2022/01/15 00:53:18;;;;;;;0.10;0.10;;;;;;;;;;4794324;29;20375;-85
2022/01/15 00:55:44;;;;;;;0.10;0.10;;;;;;;;;;4809403;29;20057;-85
2022/01/15 00:58:10;;;;;;;0.10;0.10;;;;;;;;;;4809174;29;20054;-85
2022/01/15 01:00:36;;;;;;;0.10;0.10;;;;;;;;;;4824427;29;20423;-85
2022/01/15 01:03:02;;;;;;;0.10;0.10;;;;;;;;;;4824342;29;20042;-85
2022/01/15 01:05:28;;;;;;;0.10;0.10;;;;;;;;;;4794225;29;20049;-85
2022/01/15 01:07:54;;;;;;;0.10;0.10;;;;;;;;;;4824129;29;20065;-85
2022/01/15 01:10:49;;;;;;;0.10;0.10;;;;;;;;;;4809196;29;20042;-86
2022/01/15 01:24:01;;;;;;;0.10;0.10;;;;;;;;;;4827350;29;20089;-85
2022/01/15 01:26:33;;;;;;;0.10;0.10;;;;;;;;;;4812123;29;20078;-85
2022/01/15 01:29:17;;;;;;;0.10;0.10;;;;;;;;;;4812619;29;20347;-85
2022/01/15 01:31:58;;;;;;;0.10;0.10;;;;;;;;;;4829649;29;20081;-85
2022/01/15 01:34:27;;;;;;;0.10;0.10;;;;;;;;;;4812472;29;20054;-85
2022/01/15 01:39:44;;;;;;;0.10;0.10;;;;;;;;;;4843646;29;20057;-85
2022/01/15 01:42:27;;;;;;;;;;;;;;;;;;4812118;29;20064;-86
2022/01/15 01:45:09;;;;;;;0.10;0.10;;;;;;;;;;4827036;29;19925;-86
2022/01/15 01:47:45;;;;;;;0.10;0.10;;;;;;;;;;4797338;29;20046;-85
2022/01/15 01:50:20;;;;;;;0.10;0.10;;;;;;;;;;4812902;29;20054;-85
2022/01/15 01:52:48;;;;;;;0.10;0.10;;;;;;;;;;4826910;29;20069;-85
2022/01/15 01:55:14;;;;;;;0.10;0.10;;;;;;;;;;4812099;29;20129;-86
2022/01/15 01:57:40;;;;;;;0.10;0.10;;;;;;;;;;4827176;29;20499;-85
2022/01/15 02:00:07;;;;;;;0.10;0.10;;;;;;;;;;4812090;29;20046;-85
2022/01/15 02:02:33;;;;;;;0.10;0.10;;;;;;;;;;4826895;29;20073;-85
2022/01/15 02:04:59;;;;;;;0.10;0.10;;;;;;;;;;4811636;29;20084;-85
2022/01/15 02:07:28;;;;;;;0.10;0.10;;;;;;;;;;4811655;29;20046;-86
2022/01/15 02:09:55;;;;;;;0.10;0.10;;;;;;;;;;4811486;29;20479;-85
2022/01/15 02:12:21;;;;;;;0.10;0.10;;;;;;;;;;4797020;29;20141;-86
2022/01/15 02:14:47;;;;;;;0.10;0.10;;;;;;;;;;4796404;29;20049;-86
2022/01/15 02:17:17;;;;;;;0.10;0.10;;;;;;;;;;4826430;29;20046;-86
2022/01/15 02:20:09;;;;;;;0.10;0.10;;;;;;;;;;4796788;29;20494;-86
2022/01/15 02:25:17;;;;;;;0.10;0.10;;;;;;;;;;4828744;29;20479;-86
2022/01/15 02:27:43;;;;;;;0.10;0.10;;;;;;;;;;4826201;29;20089;-86
2022/01/15 02:30:09;;;;;;;0.10;0.10;;;;;;;;;;4811002;29;20038;-86
2022/01/15 02:32:36;;;;;;;0.10;0.10;;;;;;;;;;4825818;29;20077;-86
2022/01/15 02:35:02;;;;;;;0.10;0.10;;;;;;;;;;4825745;29;20050;-85
2022/01/15 02:37:28;;;;;;;0.10;0.10;;;;;;;;;;4810994;29;20050;-85
2022/01/15 02:39:55;;;;;;;0.10;0.10;;;;;;;;;;4811061;29;20046;-85
2022/01/15 02:42:22;;;;;;;0.10;0.10;;;;;;;;;;4825633;29;20058;-86
2022/01/15 02:44:48;;;;;;;0.10;0.10;;;;;;;;;;4795827;29;20054;-85
2022/01/15 02:49:58;;;;;;;0.10;0.10;;;;;;;;;;4825845;29;20336;-86
2022/01/15 02:52:24;;;;;;;0.10;0.10;;;;;;;;;;4810868;29;20050;-87
2022/01/15 02:54:50;;;;;;;0.10;0.10;;;;;;;;;;4825803;29;20073;-86
2022/01/15 02:57:16;;;;;;;0.10;0.10;;;;;;;;;;4810740;29;20046;-86
2022/01/15 02:59:42;;;;;;;0.10;0.10;;;;;;;;;;4810652;29;20053;-86
2022/01/15 03:02:08;;;;;;;0.10;0.10;;;;;;;;;;4810609;29;20129;-86
2022/01/15 03:04:34;;;;;;;0.10;0.10;;;;;;;;;;4810582;29;20053;-86
2022/01/15 03:07:00;;;;;;;0.10;0.10;;;;;;;;;;4810478;29;20406;-86
2022/01/15 03:09:26;;;;;;;0.10;0.10;;;;;;;;;;4810169;29;20076;-85
2022/01/15 03:11:58;;;;;;;0.10;0.10;;;;;;;;;;4810538;29;20062;-86
2022/01/15 03:14:25;;;;;;;0.10;0.10;;;;;;;;;;4825844;29;20371;-85
2022/01/15 03:16:51;;;;;;;0.10;0.10;;;;;;;;;;4795503;29;20053;-83
2022/01/15 03:19:17;;;;;;;0.10;0.10;;;;;;;;;;4825723;29;20038;-84
2022/01/15 03:21:43;;;;;;;0.10;0.10;;;;;;;;;;4810302;29;20060;-83
2022/01/15 03:24:09;;;;;;;0.10;0.10;;;;;;;;;;4810197;29;20042;-83
2022/01/15 03:26:35;;;;;;;0.10;0.10;;;;;;;;;;4795079;29;20052;-84
2022/01/15 03:29:01;;;;;;;0.10;0.10;;;;;;;;;;4810261;29;20053;-84
2022/01/15 03:31:27;;;;;;;0.10;0.10;;;;;;;;;;4825290;29;20049;-83
2022/01/15 03:33:53;;;;;;;0.10;0.10;;;;;;;;;;4825233;29;20046;-84
2022/01/15 03:36:19;;;;;;;0.10;0.10;;;;;;;;;;4841563;29;20052;-84
2022/01/15 03:38:45;;;;;;;0.10;0.10;;;;;;;;;;4810097;29;20074;-84
2022/01/15 03:41:11;;;;;;;0.10;0.10;;;;;;;;;;4825218;29;20065;-83
2022/01/15 03:43:37;;;;;;;0.10;0.10;;;;;;;;;;4825183;29;20077;-83
2022/01/15 03:46:03;;;;;;;0.10;0.10;;;;;;;;;;4825013;29;20084;-83
2022/01/15 03:48:29;;;;;;;0.10;0.10;;;;;;;;;;4824990;29;20367;-84
2022/01/15 03:50:55;;;;;;;0.10;0.10;;;;;;;;;;4794865;29;20049;-84
2022/01/15 03:53:22;;;;;;;0.10;0.10;;;;;;;;;;4825152;29;20054;-83
2022/01/15 03:55:48;;;;;;;0.10;0.10;;;;;;;;;;4810183;29;20061;-83
2022/01/15 03:58:15;;;;;;;0.10;0.10;;;;;;;;;;4809838;29;20467;-84
2022/01/15 04:00:41;;;;;;;0.10;0.10;;;;;;;;;;4794931;29;20058;-83
2022/01/15 04:03:07;;;;;;;0.00;0.00;;;;;;;;;;4794769;29;20574;-83
2022/01/15 04:05:33;;;;;;;0.10;0.10;;;;;;;;;;4795038;29;20199;-84
2022/01/15 04:07:59;;;;;;;0.10;0.10;;;;;;;;;;4794748;29;20474;-83
2022/01/15 04:10:25;;;;;;;0.10;0.10;;;;;;;;;;4809603;29;20048;-83
2022/01/15 04:12:51;;;;;;;0.10;0.10;;;;;;;;;;4825047;29;20058;-83
2022/01/15 04:15:18;;;;;;;0.10;0.10;;;;;;;;;;4809590;29;20046;-82
2022/01/15 04:17:44;;;;;;;0.10;0.10;;;;;;;;;;4810050;29;20343;-83
2022/01/15 04:20:11;;;;;;;0.10;0.10;;;;;;;;;;4825053;29;20046;-83
2022/01/15 04:22:37;;;;;;;0.10;0.10;;;;;;;;;;4824564;29;20050;-84
2022/01/15 04:25:03;;;;;;;0.10;0.10;;;;;;;;;;4824740;29;20085;-83
2022/01/15 04:27:29;;;;;;;0.10;0.10;;;;;;;;;;4824788;29;20050;-84
2022/01/15 04:29:56;;;;;;;0.10;0.10;;;;;;;;;;4809471;29;20049;-84
2022/01/15 04:32:22;;;;;;;0.10;0.10;;;;;;;;;;4824636;29;20504;-83
2022/01/15 04:34:48;;;;;;;0.10;0.10;;;;;;;;;;4794546;29;20502;-83
2022/01/15 04:37:19;;;;;;;0.10;0.10;;;;;;;;;;4841032;29;20042;-84
2022/01/15 04:39:45;;;;;;;0.10;0.10;;;;;;;;;;4810258;29;20050;-85
2022/01/15 04:42:11;;;;;;;0.10;0.10;;;;;;;;;;4824478;29;20065;-84
2022/01/15 04:44:37;;;;;;;0.10;0.10;;;;;;;;;;4809638;29;20054;-84
2022/01/15 04:47:04;;;;;;;0.10;0.10;;;;;;;;;;4824436;29;20061;-83
2022/01/15 04:49:30;;;;;;;0.10;0.10;;;;;;;;;;4809658;29;20103;-84
2022/01/15 04:51:56;;;;;;;0.10;0.10;;;;;;;;;;4809492;29;20115;-84
2022/01/15 04:54:22;;;;;;;0.10;0.10;;;;;;;;;;4840865;29;20397;-84
2022/01/15 04:56:48;;;;;;;0.10;0.10;;;;;;;;;;4825667;29;20046;-85
2022/01/15 04:59:14;;;;;;;0.10;0.10;;;;;;;;;;4827952;29;20050;-84
2022/01/15 05:01:40;;;;;;;0.10;0.10;;;;;;;;;;4812699;29;20133;-84
2022/01/15 05:04:06;;;;;;;0.10;0.10;;;;;;;;;;4812433;29;20049;-83
2022/01/15 05:06:32;;;;;;;0.10;0.10;;;;;;;;;;4827406;29;20093;-84
2022/01/15 05:09:05;;;;;;;0.10;0.10;;;;;;;;;;4812626;29;20167;-83
2022/01/15 05:11:43;;;;;;;0.10;0.10;;;;;;;;;;4844367;29;20054;-84
2022/01/15 05:14:10;;;;;;;0.10;0.10;;;;;;;;;;4799036;29;20056;-83
2022/01/15 05:16:36;;;;;;;0.10;0.10;;;;;;;;;;4827459;29;20038;-84
2022/01/15 05:19:02;;;;;;;0.10;0.10;;;;;;;;;;4812254;29;20517;-83
2022/01/15 05:21:28;;;;;;;0.10;0.10;;;;;;;;;;4812821;29;20054;-84
2022/01/15 05:23:54;;;;;;;0.10;0.10;;;;;;;;;;4827193;29;20071;-83
2022/01/15 05:26:20;;;;;;;0.10;0.10;;;;;;;;;;4812213;29;20054;-82
2022/01/15 05:28:45;;;;;;;0.10;0.10;;;;;;;;;;4827753;29;20081;-82
2022/01/15 05:31:12;;;;;;;0.10;0.10;;;;;;;;;;4827157;29;20045;-82
2022/01/15 05:33:38;;;;;;;0.10;0.10;;;;;;;;;;4827102;29;20697;-82
2022/01/15 05:36:04;;;;;;;0.10;0.10;;;;;;;;;;4827265;29;20054;-82
2022/01/15 05:38:30;;;;;;;0.10;0.10;;;;;;;;;;4812011;29;20486;-82
2022/01/15 05:40:56;;;;;;;0.10;0.10;;;;;;;;;;4827187;29;20058;-82
2022/01/15 05:43:22;;;;;;;0.10;0.10;;;;;;;;;;4811945;29;20050;-81
2022/01/15 05:45:48;;;;;;;0.10;0.10;;;;;;;;;;4811963;29;20509;-82
2022/01/15 05:48:14;;;;;;;0.10;0.10;;;;;;;;;;4827272;29;20045;-82
2022/01/15 05:50:40;;;;;;;0.10;0.10;;;;;;;;;;4797328;29;20094;-82
2022/01/15 05:53:06;;;;;;;0.10;0.10;;;;;;;;;;4811757;29;20054;-82
2022/01/15 05:55:32;;;;;;;0.10;0.10;;;;;;;;;;4827016;29;20046;-83
2022/01/15 05:57:58;;;;;;;0.10;0.10;;;;;;;;;;4811994;29;20038;-84
2022/01/15 06:00:24;;;;;;;0.10;0.10;;;;;;;;;;4827004;29;20060;-83
2022/01/15 06:02:50;;;;;;;0.10;0.10;;;;;;;;;;4811618;29;20049;-83
2022/01/15 06:05:16;;;;;;;0.10;0.10;;;;;;;;;;4811815;29;20145;-83
2022/01/15 06:07:42;;;;;;;0.10;0.10;;;;;;;;;;4810845;29;20046;-83
2022/01/15 06:10:08;;;;;;;0.10;0.10;;;;;;;;;;4826096;29;20049;-83
2022/01/15 06:12:42;;;;;;;0.10;0.10;;;;;;;;;;4826469;29;20124;-82
2022/01/15 06:15:08;;;;;;;0.10;0.10;;;;;;;;;;4827671;29;20193;-82
2022/01/15 06:17:34;;;;;;;0.10;0.10;;;;;;;;;;4811518;29;20050;-83
2022/01/15 06:20:00;;;;;;;0.10;0.10;;;;;;;;;;4826234;29;20068;-83
2022/01/15 06:22:26;;;;;;;0.10;0.10;;;;;;;;;;4826535;29;20077;-83
2022/01/15 06:24:52;;;;;;;0.10;0.10;;;;;;;;;;4826297;29;20046;-83
2022/01/15 06:27:19;;;;;;;0.10;0.10;;;;;;;;;;4811378;29;20056;-83
2022/01/15 06:29:45;;;;;;;0.10;0.10;;;;;;;;;;4826227;29;20049;-83
2022/01/15 06:32:11;;;;;;;0.10;0.10;;;;;;;;;;4811073;29;20399;-84
2022/01/15 06:34:37;;;;;;;0.10;0.10;;;;;;;;;;4796293;29;20049;-84
2022/01/15 06:37:04;;;;;;;0.10;0.10;;;;;;;;;;4826263;29;20566;-83
2022/01/15 06:39:30;;;;;;;0.10;0.10;;;;;;;;;;4811005;29;20513;-85
2022/01/15 06:41:56;;;;;;;0.10;0.10;;;;;;;;;;4826077;29;20066;-84
2022/01/15 06:44:22;;;;;;;0.10;0.10;;;;;;;;;;4795901;29;20060;-85
2022/01/15 06:46:48;;;;;;;0.10;0.10;;;;;;;;;;4811360;29;20133;-85
2022/01/15 06:49:14;;;;;;;0.10;0.10;;;;;;;;;;4811125;29;20081;-84
2022/01/15 06:51:40;;;;;;;0.10;0.10;;;;;;;;;;4810914;29;20046;-84
2022/01/15 06:54:06;;;;;;;0.10;0.10;;;;;;;;;;4810947;29;20052;-84
2022/01/15 06:56:32;;;;;;;0.10;0.10;;;;;;;;;;4810912;29;20045;-85
2022/01/15 06:58:59;;;;;;;0.10;0.10;;;;;;;;;;4825875;29;20102;-85
2022/01/15 07:01:25;;;;;;;0.10;0.10;;;;;;;;;;4842582;29;20125;-85
2022/01/15 07:03:50;;;;;;;0.10;0.10;;;;;;;;;;4811030;29;20130;-86
2022/01/15 07:06:16;;;;;;;0.08;0.08;;;;;;;;;;4810678;29;20457;-85
2022/01/15 07:08:42;;;;;;;0.00;0.00;;;;;;;;;;4811076;29;20057;-86
2022/01/15 07:11:08;;;;;;;0.10;0.10;;;;;;;;;;4795832;29;20109;-86
2022/01/15 07:13:34;;;;;;;0.10;0.10;;;;;;;;;;4810367;29;20408;-85
2022/01/15 07:16:01;;;;;;;0.10;0.10;;;;;;;;;;4795680;29;20050;-85
2022/01/15 07:18:27;;;;;;;0.03;0.03;;;;;;;;;;4810425;29;20060;-87
2022/01/15 07:20:53;;;;;;;0.10;0.10;;;;;;;;;;4825340;29;20138;-85
2022/01/15 07:23:19;;;;;;;0.10;0.10;;;;;;;;;;4810255;29;20060;-86
2022/01/15 07:25:45;;;;;;;0.10;0.10;;;;;;;;;;4810353;29;20517;-84
2022/01/15 07:28:11;;;;;;;0.60;0.17;;;;;;;;;;4825744;29;20053;-84
2022/01/15 07:30:37;;;;;;;0.10;0.10;;;;;;;;;;4825509;29;20042;-84
2022/01/15 07:33:03;;;;;;;0.10;0.10;;;;;;;;;;4825623;29;20444;-83
2022/01/15 07:35:29;;;;;;;0.10;0.10;;;;;;;;;;4825431;29;20110;-83
2022/01/15 07:37:55;;;;;;;0.10;0.10;;;;;;;;;;4825721;29;20077;-83
2022/01/15 07:40:21;;;;;;;0.10;0.10;;;;;;;;;;4825607;29;20133;-84
2022/01/15 07:42:47;;;;;;;0.10;0.10;;;;;;;;;;4809616;29;20156;-83
2022/01/15 07:45:14;;;;;;;0.10;0.10;;;;;;;;;;4825556;29;20348;-83
2022/01/15 07:47:40;;;;;;;0.10;0.10;;;;;;;;;;4810365;29;20394;-84
2022/01/15 07:50:06;;;;;;;0.10;0.10;;;;;;;;;;4810116;29;20049;-84
2022/01/15 07:52:32;;;;;;;0.10;0.10;;;;;;;;;;4824996;29;20486;-83
2022/01/15 07:55:00;;;;;;;0.10;0.10;;;;;;;;;;4825298;29;20125;-83
2022/01/15 07:57:26;;;;;;;0.22;0.20;;;;;;;;;;4825442;29;20368;-83
2022/01/15 07:59:52;;;;;;;0.10;0.10;;;;;;;;;;4810014;29;20038;-85
2022/01/15 08:02:18;;;;;;;0.10;0.10;;;;;;;;;;4809452;29;20058;-84
2022/01/15 08:04:44;;;;;;;0.10;0.10;;;;;;;;;;4825299;29;20408;-83
2022/01/15 08:07:10;;;;;;;0.10;0.10;;;;;;;;;;4809804;29;20141;-84
2022/01/15 08:09:36;;;;;;;0.10;0.10;;;;;;;;;;4790489;29;20057;-84
2022/01/15 08:12:03;;;;;;;0.10;0.10;;;;;;;;;;4813239;29;20478;-83
2022/01/15 08:14:29;;;;;;;0.10;0.10;;;;;;;;;;4828092;29;20046;-84
2022/01/15 08:16:55;;;;;;;0.10;0.10;;;;;;;;;;4858508;29;20088;-84
2022/01/15 08:19:21;;;;;;;0.10;0.10;;;;;;;;;;4827980;29;20381;-82
2022/01/15 08:21:46;;;;;;;0.10;0.10;;;;;;;;;;4824487;29;20054;-83
2022/01/15 08:24:12;;;;;;;0.10;0.10;;;;;;;;;;4824714;29;20528;-83
2022/01/15 08:26:38;;;;;;;0.08;0.08;;;;;;;;;;4838317;29;20052;-83
2022/01/15 08:29:05;;;;;;;0.10;0.10;;;;;;;;;;4827826;29;20045;-83
2022/01/15 08:31:31;;;;;;;0.10;0.10;;;;;;;;;;4813427;29;20128;-83
2022/01/15 08:33:57;;;;;;;0.00;0.00;;;;;;;;;;4862202;29;20080;-84
2022/01/15 08:36:23;;;;;;;0.10;0.10;;;;;;;;;;4863256;29;20105;-81
2022/01/15 08:38:49;;;;;;;0.03;0.03;;;;;;;;;;4831248;29;20073;-83
2022/01/15 08:41:15;;;;;;;0.10;0.10;;;;;;;;;;4861660;29;20494;-84
2022/01/15 08:43:41;;;;;;;0.10;0.10;;;;;;;;;;4831296;29;20213;-84
2022/01/15 08:46:07;;;;;;;0.05;0.05;;;;;;;;;;4846566;29;20394;-84
2022/01/15 08:48:33;;;;;;;0.00;0.00;;;;;;;;;;4861742;29;20045;-84
2022/01/15 08:50:59;;;;;;;0.10;0.10;;;;;;;;;;4831352;29;20052;-84
2022/01/15 08:53:25;;;;;;;0.10;0.10;;;;;;;;;;4831355;29;20051;-84
2022/01/15 08:55:52;;;;;;;0.10;0.10;;;;;;;;;;4861856;29;20190;-85
2022/01/15 08:58:19;;;;;;;0.10;0.10;;;;;;;;;;4861488;29;20102;-84
2022/01/15 09:00:45;;;;;;;0.10;0.10;;;;;;;;;;4861577;29;20084;-84
2022/01/15 09:03:11;;;;;;;0.10;0.10;;;;;;;;;;4827522;29;20104;-83
2022/01/15 09:05:37;;;;;;;0.10;0.10;;;;;;;;;;4827620;29;20102;-83
2022/01/15 09:08:04;;;;;;;0.10;0.10;;;;;;;;;;4812470;29;20046;-83
2022/01/15 09:10:30;;;;;;;0.10;0.10;;;;;;;;;;4812670;29;20109;-83
2022/01/15 09:12:56;;;;;;;0.10;0.10;;;;;;;;;;4827617;29;20469;-84
2022/01/15 09:15:22;;;;;;;0.10;0.10;;;;;;;;;;4812512;29;20042;-84
2022/01/15 09:17:48;;;;;;;0.10;0.10;;;;;;;;;;4827636;29;20045;-84
2022/01/15 09:20:14;;;;;;;0.10;0.10;;;;;;;;;;4827701;29;20121;-84
2022/01/15 09:22:40;;;;;;;0.10;0.10;;;;;;;;;;4827156;29;20459;-84
2022/01/15 09:25:06;;;;;;;0.10;0.10;;;;;;;;;;4797261;29;20550;-84
2022/01/15 09:30:16;;;;;;;0.10;0.10;;;;;;;;;;4829742;29;20053;-83
2022/01/15 09:32:44;;;;;;;0.10;0.10;;;;;;;;;;4827122;29;20526;-84
2022/01/15 09:35:10;;;;;;;0.10;0.10;;;;;;;;;;4843409;29;20564;-83
2022/01/15 09:37:36;;;;;;;0.10;0.10;;;;;;;;;;4797013;29;20129;-84
2022/01/15 09:40:02;;;;;;;0.10;0.10;;;;;;;;;;4827100;29;20081;-85
2022/01/15 09:42:28;;;;;;;0.10;0.10;;;;;;;;;;4826605;29;20482;-83
2022/01/15 09:44:55;;;;;;;0.10;0.10;;;;;;;;;;4826811;29;20134;-84
2022/01/15 09:47:22;;;;;;;0.03;0.03;;;;;;;;;;4811784;29;20046;-85
2022/01/15 09:49:48;;;;;;;0.00;0.00;;;;;;;;;;4811376;29;20102;-83
2022/01/15 09:52:14;;;;;;;0.10;0.10;;;;;;;;;;4827022;29;20082;-85
2022/01/15 09:54:40;;;;;;;0.10;0.10;;;;;;;;;;4811807;29;20487;-83
2022/01/15 09:57:06;;;;;;;0.10;0.10;;;;;;;;;;4826962;29;20062;-83
2022/01/15 09:59:32;;;;;;;0.10;0.10;;;;;;;;;;4811717;29;20151;-84
2022/01/15 10:02:02;;;;;;;0.10;0.10;;;;;;;;;;4811503;29;20626;-85
2022/01/15 10:04:31;;;;;;;0.10;0.10;;;;;;;;;;4797045;29;20057;-83
2022/01/15 10:07:11;;;;;;;0.10;0.10;;;;;;;;;;4811647;29;20298;-83
2022/01/15 10:09:37;;;;;;;0.10;0.10;;;;;;;;;;4811613;29;20368;-83
2022/01/15 10:12:03;;;;;;;0.10;0.10;;;;;;;;;;4811492;29;20038;-84
2022/01/15 10:14:36;;;;;;;0.20;0.20;;;;;;;;;;4811537;29;20053;-83
2022/01/15 10:17:03;;;;;;;0.10;0.10;;;;;;;;;;4826225;29;20057;-84
2022/01/15 10:19:31;;;;;;;0.10;0.10;;;;;;;;;;4811319;29;20475;-86
2022/01/15 10:22:09;;;;;;;0.10;0.10;;;;;;;;;;4811070;29;20057;-88
2022/01/15 10:24:35;;;;;;;0.10;0.10;;;;;;;;;;4826097;29;20042;-87
2022/01/15 10:27:17;;;;;;;0.00;0.00;;;;;;;;;;4826120;29;20049;-87
2022/01/15 10:29:48;;;;;;;0.10;0.10;;;;;;;;;;4811265;29;20045;-87
2022/01/15 10:32:14;;;;;;;0.10;0.10;;;;;;;;;;4811032;29;20079;-86
2022/01/15 10:34:41;;;;;;;0.10;0.10;;;;;;;;;;4811224;29;20050;-86
2022/01/15 10:37:12;;;;;;;0.10;0.10;;;;;;;;;;4796115;29;20103;-87
2022/01/15 10:39:39;;;;;;;0.10;0.10;;;;;;;;;;4811259;29;20122;-86
2022/01/15 10:42:23;;;;;;;0.10;0.10;;;;;;;;;;4810780;29;20517;-86
2022/01/15 10:44:49;;;;;;;0.10;0.10;;;;;;;;;;4796737;29;20403;-87
2022/01/15 10:47:16;;;;;;;0.10;0.10;;;;;;;;;;4795986;29;20053;-87
2022/01/15 10:49:42;;;;;;;0.00;0.00;;;;;;;;;;4811145;29;20110;-86
2022/01/15 10:52:08;;;;;;;0.10;0.10;;;;;;;;;;4795903;29;20041;-87
2022/01/15 10:54:34;;;;;;;0.10;0.10;;;;;;;;;;4841902;29;20062;-85
2022/01/15 10:57:08;;;;;;;0.10;0.10;;;;;;;;;;4811041;29;20538;-85
2022/01/15 10:59:34;;;;;;;0.20;0.10;;;;;;;;;;4810750;29;20061;-85
2022/01/15 11:02:16;;;;;;;0.10;0.10;;;;;;;;;;4795898;29;20049;-84
2022/01/15 11:04:42;;;;;;;0.10;0.10;;;;;;;;;;4825651;29;20097;-84
2022/01/15 11:07:14;;;;;;;0.10;0.10;;;;;;;;;;4827014;29;20133;-85
2022/01/15 11:09:43;;;;;;;0.10;0.10;;;;;;;;;;4825835;29;20093;-86
2022/01/15 11:12:09;;;;;;;0.30;0.30;;;;;;;;;;4825560;29;20090;-83
2022/01/15 11:14:36;;;;;;;0.10;0.10;;;;;;;;;;4825598;29;20089;-83
2022/01/15 11:17:02;;;;;;;0.10;0.10;;;;;;;;;;4842003;29;20045;-83
2022/01/15 11:19:28;;;;;;;0.10;0.10;;;;;;;;;;4825994;29;20367;-83
2022/01/15 11:21:54;;;;;;;0.10;0.10;;;;;;;;;;4810358;29;20049;-84
2022/01/15 11:24:20;;;;;;;0.10;0.10;;;;;;;;;;4824442;29;20056;-83
2022/01/15 11:26:47;;;;;;;0.10;0.10;;;;;;;;;;4830361;29;20097;-83
2022/01/15 11:29:14;;;;;;;0.10;0.10;;;;;;;;;;4813269;29;20582;-84
2022/01/15 11:31:43;;;;;;;0.10;0.10;;;;;;;;;;4828537;29;20124;-83
2022/01/15 11:34:10;;;;;;;0.10;0.10;;;;;;;;;;4828371;29;20124;-84
2022/01/15 11:36:42;;;;;;;0.10;0.10;;;;;;;;;;4828352;29;20053;-83
2022/01/15 11:39:08;;;;;;;;;;;;;;;;;;4859462;29;20076;-84
2022/01/15 11:41:38;;;;;;;0.10;0.10;;;;;;;;;;4843155;29;19927;-85
2022/01/15 11:44:25;;;;;;;0.10;0.10;;;;;;;;;;4828348;29;20414;-84
2022/01/15 11:46:52;;;;;;;0.10;0.10;;;;;;;;;;4842924;29;20117;-84
2022/01/15 11:49:24;;;;;;;0.10;0.10;;;;;;;;;;4813032;29;20051;-83
2022/01/15 11:51:50;;;;;;;0.10;0.10;;;;;;;;;;4859724;29;20446;-83
2022/01/15 11:54:16;;;;;;;0.10;0.10;;;;;;;;;;4858457;29;20053;-84
2022/01/15 11:56:43;;;;;;;0.10;0.10;;;;;;;;;;4828009;29;20104;-84
2022/01/15 11:59:28;;;;;;;0.10;0.10;;;;;;;;;;4858754;29;20049;-83
2022/01/15 12:01:57;;;;;;;0.10;0.10;;;;;;;;;;4858255;29;20057;-84
2022/01/15 12:04:24;;;;;;;0.10;0.10;;;;;;;;;;4827980;29;20056;-83
2022/01/15 12:07:06;;;;;;;0.10;0.10;;;;;;;;;;4858234;29;20048;-83
2022/01/15 12:09:35;;;;;;;0.10;0.10;;;;;;;;;;4859947;29;20042;-84
2022/01/15 12:12:02;;;;;;;0.10;0.10;;;;;;;;;;4858232;29;20045;-83
2022/01/15 12:14:47;;;;;;;0.10;0.10;;;;;;;;;;4828151;29;20050;-84
2022/01/15 12:17:22;;;;;;;0.10;0.10;;;;;;;;;;4858349;29;20045;-84
2022/01/15 12:19:48;;;;;;;0.00;0.00;;;;;;;;;;4827627;29;20086;-82
2022/01/15 12:22:33;;;;;;;0.10;0.10;;;;;;;;;;4858238;29;20071;-82
2022/01/15 12:24:59;;;;;;;0.10;0.10;;;;;;;;;;4858128;29;20053;-85
2022/01/15 12:27:29;;;;;;;0.10;0.10;;;;;;;;;;4827622;29;20454;-84
2022/01/15 12:29:59;;;;;;;0.10;0.10;;;;;;;;;;4843935;29;20125;-85
2022/01/15 12:32:32;;;;;;;0.10;0.10;;;;;;;;;;4809835;29;20054;-84
2022/01/15 12:34:58;;;;;;;0.10;0.10;;;;;;;;;;4839856;29;20501;-84
2022/01/15 12:37:24;;;;;;;0.10;0.10;;;;;;;;;;4824988;29;20054;-84
2022/01/15 12:39:50;;;;;;;0.10;0.10;;;;;;;;;;4794718;29;20046;-84
2022/01/15 12:42:17;;;;;;;0.20;0.20;;;;;;;;;;4840774;29;20058;-83
2022/01/15 12:44:53;;;;;;;0.10;0.10;;;;;;;;;;4839664;29;20065;-84
2022/01/15 12:47:19;;;;;;;0.32;0.32;;;;;;;;;;4809279;29;20050;-84
2022/01/15 12:49:50;;;;;;;0.10;0.10;;;;;;;;;;4856547;29;20124;-84
2022/01/15 12:52:26;;;;;;;0.00;0.00;;;;;;;;;;4858197;29;20490;-83
2022/01/15 12:54:53;;;;;;;0.03;0.03;;;;;;;;;;4812492;29;20055;-84
2022/01/15 12:57:39;;;;;;;0.20;0.20;;;;;;;;;;4858068;29;20483;-83
2022/01/15 13:00:12;;;;;;;0.22;0.22;;;;;;;;;;4827908;29;20049;-83
2022/01/15 13:02:38;;;;;;;0.10;0.10;;;;;;;;;;4827569;29;20041;-84
2022/01/15 13:05:04;;;;;;;0.10;0.10;;;;;;;;;;4827800;29;20042;-84
2022/01/15 13:07:49;;;;;;;0.20;0.20;;;;;;;;;;4859456;29;20078;-83
2022/01/15 13:13:14;;;;;;;0.00;0.00;;;;;;;;;;4843807;29;20049;-84
2022/01/15 13:15:40;;;;;;;0.13;0.13;;;;;;;;;;4827526;29;20055;-83
2022/01/15 13:18:13;;;;;;;0.10;0.10;;;;;;;;;;4829032;29;20132;-83
2022/01/15 13:20:39;;;;;;;0.10;0.10;;;;;;;;;;4830885;29;20093;-83
2022/01/15 13:23:05;;;;;;;0.20;0.20;;;;;;;;;;4830591;29;20042;-84
2022/01/15 13:25:31;;;;;;;0.10;0.10;;;;;;;;;;4830636;29;20481;-86
2022/01/15 13:27:57;;;;;;;0.10;0.10;;;;;;;;;;4830657;29;20061;-86
2022/01/15 13:30:23;;;;;;;0.13;0.13;;;;;;;;;;4832363;29;20045;-85
2022/01/15 13:32:56;;;;;;;0.10;0.10;;;;;;;;;;4832322;29;20072;-84
2022/01/15 13:35:24;;;;;;;0.10;0.10;;;;;;;;;;4833437;29;20486;-84
2022/01/15 13:37:54;;;;;;;0.10;0.10;;;;;;;;;;4833629;29;20041;-85
2022/01/15 13:40:33;;;;;;;0.10;0.10;;;;;;;;;;4832781;29;20037;-85
2022/01/15 13:42:59;;;;;;;0.85;0.85;;;;;;;;;;4830714;29;20061;-85
2022/01/15 13:45:28;;;;;;;0.15;0.10;;;;;;;;;;4863967;29;20124;-85
2022/01/15 13:47:54;;;;;;;0.20;0.20;;;;;;;;;;4847008;29;20038;-84
2022/01/15 13:53:14;;;;;;;0.10;0.10;;;;;;;;;;4863004;29;20084;-84
2022/01/15 13:55:40;;;;;;;0.10;0.10;;;;;;;;;;4860498;29;20084;-84
2022/01/15 13:58:09;;;;;;;0.00;0.00;;;;;;;;;;4830266;29;20049;-85
2022/01/15 14:00:36;;;;;;;0.20;0.20;;;;;;;;;;4862774;29;20053;-84
2022/01/15 14:03:05;;;;;;;0.32;0.32;;;;;;;;;;4829613;29;20121;-84
2022/01/15 14:05:31;;;;;;;0.30;0.30;;;;;;;;;;4829459;29;20490;-85
2022/01/15 14:07:57;;;;;;;0.10;0.10;;;;;;;;;;4860391;29;20106;-85
2022/01/15 14:10:25;;;;;;;0.10;0.10;;;;;;;;;;4860362;29;20042;-87
2022/01/15 14:13:02;;;;;;;0.10;0.10;;;;;;;;;;4829889;29;20049;-86
2022/01/15 14:15:31;;;;;;;0.55;0.55;;;;;;;;;;4815107;29;20128;-86
2022/01/15 14:18:00;;;;;;;0.20;0.20;;;;;;;;;;4829545;29;20077;-87
2022/01/15 14:20:50;;;;;;;0.10;0.10;;;;;;;;;;4861288;29;20116;-88
2022/01/15 14:23:13;;;;;;;0.28;0.28;;;;;;;;;;4831609;29;20470;-86
2022/01/15 14:25:44;;;;;;;0.10;0.10;;;;;;;;;;4814448;29;20132;-84
2022/01/15 14:28:11;;;;;;;0.10;0.10;;;;;;;;;;4832694;29;20057;-88
2022/01/15 14:30:37;;;;;;;0.10;0.10;;;;;;;;;;4859423;29;20050;-86
2022/01/15 14:33:04;;;;;;;0.20;0.20;;;;;;;;;;4859610;29;20060;-86
2022/01/15 14:35:30;;;;;;;0.10;0.10;;;;;;;;;;4844838;29;20051;-85
2022/01/15 14:37:56;;;;;;;0.00;0.00;;;;;;;;;;4829253;29;20055;-87
2022/01/15 14:40:22;;;;;;;0.10;0.10;;;;;;;;;;4829194;29;20094;-85
2022/01/15 14:42:48;;;;;;;0.10;0.10;;;;;;;;;;4828339;29;20225;-88
2022/01/15 14:45:17;;;;;;;0.10;0.10;;;;;;;;;;4814077;29;20163;-88
2022/01/15 14:47:43;;;;;;;0.10;0.10;;;;;;;;;;4829291;29;20034;-87
2022/01/15 14:50:09;;;;;;;0.08;0.08;;;;;;;;;;4828687;29;20119;-86
2022/01/15 14:52:35;;;;;;;0.10;0.10;;;;;;;;;;4859440;29;20053;-86
2022/01/15 14:55:01;;;;;;;0.10;0.10;;;;;;;;;;4828730;29;20041;-86
2022/01/15 14:57:27;;;;;;;0.10;0.10;;;;;;;;;;4859303;29;20125;-87
2022/01/15 14:59:53;;;;;;;0.10;0.10;;;;;;;;;;4828997;29;20056;-86
2022/01/15 15:02:19;;;;;;;0.03;0.03;;;;;;;;;;4828633;29;20557;-87
2022/01/15 15:04:45;;;;;;;0.00;0.00;;;;;;;;;;4813479;29;20045;-87
2022/01/15 15:07:11;;;;;;;0.10;0.10;;;;;;;;;;4828855;29;20136;-88
2022/01/15 15:09:37;;;;;;;0.10;0.10;;;;;;;;;;4859256;29;20457;-86
2022/01/15 15:12:03;;;;;;;0.20;0.20;;;;;;;;;;4858979;29;20053;-87
2022/01/15 15:14:29;;;;;;;0.10;0.10;;;;;;;;;;4828749;29;20116;-87